createdAt,value
2018-10-01T00:00:48.437Z,16.70
2018-10-01T00:03:16.644Z,16.60
2018-10-01T00:05:44.428Z,16.60
2018-10-01T00:08:12.218Z,16.60
2018-10-01T00:10:40.132Z,16.60
2018-10-01T00:13:08.067Z,16.50
2018-10-01T00:15:35.885Z,16.60
2018-10-01T00:18:03.685Z,16.50
2018-10-01T00:20:38.461Z,16.50
2018-10-01T00:23:06.265Z,16.40
2018-10-01T00:25:34.010Z,16.50
2018-10-01T00:28:01.801Z,16.40
2018-10-01T00:30:29.590Z,16.40
2018-10-01T00:32:57.404Z,16.40
2018-10-01T00:35:25.170Z,16.30
2018-10-01T00:37:52.966Z,16.30
2018-10-01T00:40:20.781Z,16.20
2018-10-01T00:42:48.547Z,16.20
2018-10-01T00:45:16.337Z,16.20
2018-10-01T00:47:44.146Z,16.20
2018-10-01T00:50:11.977Z,16.20
2018-10-01T00:52:39.845Z,16.10
2018-10-01T00:55:07.743Z,16.10
2018-10-01T00:57:36.854Z,16.10
2018-10-01T01:00:04.859Z,16.00
2018-10-01T01:02:32.657Z,16.00
2018-10-01T01:05:00.481Z,16.00
2018-10-01T01:07:28.252Z,15.90
2018-10-01T01:09:56.069Z,15.90
2018-10-01T01:12:23.917Z,15.80
2018-10-01T01:14:51.807Z,15.80
2018-10-01T01:17:19.929Z,15.80
2018-10-01T01:19:47.745Z,15.80
2018-10-01T01:22:15.571Z,15.80
2018-10-01T01:24:43.437Z,15.80
2018-10-01T01:27:11.254Z,15.80
2018-10-01T01:29:39.060Z,15.80
2018-10-01T01:32:07.061Z,15.80
2018-10-01T01:34:34.884Z,15.80
2018-10-01T01:37:02.711Z,15.80
2018-10-01T01:39:30.575Z,15.80
2018-10-01T01:41:58.395Z,15.80
2018-10-01T01:44:26.183Z,15.80
2018-10-01T01:46:53.970Z,15.80
2018-10-01T01:49:21.757Z,15.80
2018-10-01T01:51:49.545Z,15.80
2018-10-01T01:54:17.937Z,15.70
2018-10-01T01:56:45.837Z,15.70
2018-10-01T01:59:13.621Z,15.70
2018-10-01T02:01:41.373Z,15.70
2018-10-01T02:04:09.160Z,15.70
2018-10-01T02:06:36.979Z,15.70
2018-10-01T02:09:07.109Z,15.70
2018-10-01T02:11:34.982Z,15.70
2018-10-01T02:14:02.883Z,15.70
2018-10-01T02:16:30.665Z,15.70
2018-10-01T02:18:58.461Z,15.70
2018-10-01T02:21:26.353Z,15.70
2018-10-01T02:23:54.181Z,15.70
2018-10-01T02:26:21.989Z,15.60
2018-10-01T02:28:49.757Z,15.70
2018-10-01T02:31:17.577Z,15.70
2018-10-01T02:33:45.386Z,15.70
2018-10-01T02:36:13.240Z,15.70
2018-10-01T02:38:41.158Z,15.70
2018-10-01T02:41:09.163Z,15.70
2018-10-01T02:43:37.287Z,15.70
2018-10-01T02:46:05.100Z,15.70
2018-10-01T02:48:32.955Z,15.70
2018-10-01T02:51:01.209Z,15.70
2018-10-01T02:53:34.429Z,15.70
2018-10-01T02:56:02.348Z,15.70
2018-10-01T02:58:30.152Z,15.70
2018-10-01T03:00:58.001Z,15.70
2018-10-01T03:03:25.798Z,15.70
2018-10-01T03:05:53.562Z,15.60
2018-10-01T03:08:21.494Z,15.60
2018-10-01T03:10:49.581Z,15.60
2018-10-01T03:13:17.379Z,15.60
2018-10-01T03:15:45.161Z,15.60
2018-10-01T03:18:12.997Z,15.50
2018-10-01T03:20:40.781Z,15.50
2018-10-01T03:23:08.819Z,15.50
2018-10-01T03:25:36.658Z,15.50
2018-10-01T03:28:04.461Z,15.50
2018-10-01T03:30:32.216Z,15.50
2018-10-01T03:33:00.014Z,15.50
2018-10-01T03:35:27.808Z,15.50
2018-10-01T03:37:55.581Z,15.50
2018-10-01T03:40:23.373Z,15.50
2018-10-01T03:42:51.142Z,15.50
2018-10-01T03:45:18.931Z,15.50
2018-10-01T03:47:46.706Z,15.50
2018-10-01T03:50:14.518Z,15.40
2018-10-01T03:52:42.315Z,15.40
2018-10-01T03:55:10.254Z,15.40
2018-10-01T03:57:38.037Z,15.40
2018-10-01T04:00:05.898Z,15.40
2018-10-01T04:02:33.889Z,15.40
2018-10-01T04:05:01.677Z,15.40
2018-10-01T04:07:29.481Z,15.40
2018-10-01T04:09:57.245Z,15.40
2018-10-01T04:12:25.029Z,15.40
2018-10-01T04:14:52.850Z,15.30
2018-10-01T04:17:20.637Z,15.30
2018-10-01T04:19:48.455Z,15.30
2018-10-01T04:22:16.268Z,15.30
2018-10-01T04:24:44.077Z,15.30
2018-10-01T04:27:11.886Z,15.30
2018-10-01T04:29:39.737Z,15.30
2018-10-01T04:32:07.637Z,15.30
2018-10-01T04:34:35.552Z,15.30
2018-10-01T04:37:03.343Z,15.40
2018-10-01T04:39:31.215Z,15.30
2018-10-01T04:41:59.042Z,15.20
2018-10-01T04:44:26.846Z,15.10
2018-10-01T04:46:54.723Z,15.10
2018-10-01T04:49:22.554Z,15.00
2018-10-01T04:51:50.340Z,15.00
2018-10-01T04:54:18.175Z,15.00
2018-10-01T04:56:45.944Z,14.90
2018-10-01T04:59:13.725Z,14.90
2018-10-01T05:01:41.501Z,14.90
2018-10-01T05:04:09.340Z,14.90
2018-10-01T05:06:37.246Z,14.90
2018-10-01T05:09:07.589Z,14.80
2018-10-01T05:11:35.350Z,14.80
2018-10-01T05:14:03.157Z,14.80
2018-10-01T05:16:30.970Z,14.80
2018-10-01T05:18:58.981Z,14.80
2018-10-01T05:21:26.738Z,14.80
2018-10-01T05:23:54.537Z,14.80
2018-10-01T05:26:22.345Z,14.80
2018-10-01T05:28:50.121Z,14.80
2018-10-01T05:31:17.884Z,15.00
2018-10-01T05:33:45.659Z,15.10
2018-10-01T05:36:13.482Z,15.00
2018-10-01T05:38:41.341Z,15.00
2018-10-01T05:41:09.196Z,14.80
2018-10-01T05:43:37.289Z,14.90
2018-10-01T05:46:05.169Z,14.90
2018-10-01T05:48:32.940Z,14.90
2018-10-01T05:51:00.737Z,14.80
2018-10-01T05:53:28.521Z,14.80
2018-10-01T05:55:56.401Z,14.80
2018-10-01T05:58:24.185Z,14.90
2018-10-01T06:00:52.416Z,14.90
2018-10-01T06:03:20.254Z,14.70
2018-10-01T06:05:48.022Z,14.80
2018-10-01T06:08:15.794Z,14.70
2018-10-01T06:10:43.684Z,14.70
2018-10-01T06:13:11.629Z,14.70
2018-10-01T06:15:39.632Z,14.60
2018-10-01T06:18:07.707Z,14.70
2018-10-01T06:20:35.567Z,14.60
2018-10-01T06:23:03.379Z,14.50
2018-10-01T06:25:31.140Z,14.30
2018-10-01T06:27:59.066Z,14.20
2018-10-01T06:30:26.820Z,14.20
2018-10-01T06:32:54.634Z,14.10
2018-10-01T06:35:22.429Z,14.00
2018-10-01T06:37:50.203Z,14.00
2018-10-01T06:40:18.000Z,14.10
2018-10-01T06:42:45.860Z,14.10
2018-10-01T06:45:13.766Z,14.00
2018-10-01T06:47:41.651Z,13.90
2018-10-01T06:50:09.570Z,13.90
2018-10-01T06:52:37.375Z,13.80
2018-10-01T06:55:05.201Z,13.90
2018-10-01T06:57:34.675Z,13.70
2018-10-01T07:00:02.586Z,13.70
2018-10-01T07:02:30.416Z,13.60
2018-10-01T07:04:58.429Z,13.60
2018-10-01T07:07:26.232Z,13.40
2018-10-01T07:09:54.000Z,13.30
2018-10-01T07:12:21.780Z,13.20
2018-10-01T07:14:49.553Z,13.20
2018-10-01T07:17:17.535Z,13.30
2018-10-01T07:19:45.217Z,13.30
2018-10-01T07:22:13.081Z,13.40
2018-10-01T07:24:40.925Z,13.40
2018-10-01T07:27:08.716Z,13.30
2018-10-01T07:29:36.516Z,13.10
2018-10-01T07:32:04.367Z,13.10
2018-10-01T07:34:32.160Z,13.20
2018-10-01T07:37:00.089Z,13.20
2018-10-01T07:39:28.701Z,13.30
2018-10-01T07:41:56.456Z,13.20
2018-10-01T07:44:24.258Z,13.10
2018-10-01T07:46:52.038Z,13.20
2018-10-01T07:49:19.802Z,13.00
2018-10-01T07:51:47.638Z,13.10
2018-10-01T07:54:15.433Z,13.00
2018-10-01T07:56:43.289Z,13.10
2018-10-01T07:59:11.191Z,13.10
2018-10-01T08:01:39.035Z,13.10
2018-10-01T08:04:06.905Z,13.00
2018-10-01T08:06:34.688Z,13.10
2018-10-01T08:09:02.539Z,13.10
2018-10-01T08:11:30.340Z,13.20
2018-10-01T08:13:58.165Z,13.20
2018-10-01T08:16:25.889Z,13.10
2018-10-01T08:18:53.681Z,13.00
2018-10-01T08:21:21.477Z,12.90
2018-10-01T08:23:49.257Z,12.80
2018-10-01T08:26:17.155Z,12.90
2018-10-01T08:28:44.921Z,12.90
2018-10-01T08:31:12.734Z,12.80
2018-10-01T08:33:40.605Z,12.90
2018-10-01T08:36:08.429Z,12.90
2018-10-01T08:38:36.244Z,12.80
2018-10-01T08:41:04.119Z,12.80
2018-10-01T08:43:31.840Z,12.80
2018-10-01T08:45:59.633Z,12.80
2018-10-01T08:48:28.476Z,12.80
2018-10-01T08:51:03.696Z,12.80
2018-10-01T08:53:36.856Z,12.80
2018-10-01T08:56:04.675Z,12.90
2018-10-01T08:58:32.458Z,12.80
2018-10-01T09:01:00.256Z,12.70
2018-10-01T09:03:28.033Z,12.50
2018-10-01T09:05:55.798Z,12.30
2018-10-01T09:08:23.601Z,12.30
2018-10-01T09:10:52.204Z,12.20
2018-10-01T09:13:19.983Z,12.20
2018-10-01T09:15:47.812Z,12.30
2018-10-01T09:18:15.629Z,12.30
2018-10-01T09:20:44.322Z,12.30
2018-10-01T09:23:12.457Z,12.20
2018-10-01T09:25:40.247Z,12.20
2018-10-01T09:28:08.037Z,12.30
2018-10-01T09:30:35.874Z,12.30
2018-10-01T09:33:03.706Z,12.30
2018-10-01T09:35:31.584Z,12.40
2018-10-01T09:37:59.371Z,12.40
2018-10-01T09:40:27.192Z,12.40
2018-10-01T09:42:55.028Z,12.40
2018-10-01T09:45:22.961Z,12.40
2018-10-01T09:47:50.736Z,12.50
2018-10-01T09:50:18.564Z,12.50
2018-10-01T09:52:48.948Z,12.70
2018-10-01T09:55:16.783Z,12.70
2018-10-01T09:57:44.661Z,12.70
2018-10-01T10:00:12.628Z,12.80
2018-10-01T10:02:40.665Z,12.80
2018-10-01T10:05:08.498Z,12.80
2018-10-01T10:07:36.348Z,12.80
2018-10-01T10:10:04.225Z,12.90
2018-10-01T10:12:32.001Z,12.80
2018-10-01T10:14:59.786Z,12.90
2018-10-01T10:17:27.661Z,12.90
2018-10-01T10:19:55.536Z,12.90
2018-10-01T10:22:23.335Z,12.90
2018-10-01T10:24:51.113Z,13.20
2018-10-01T10:27:18.923Z,13.00
2018-10-01T10:29:46.709Z,12.90
2018-10-01T10:32:14.623Z,12.90
2018-10-01T10:34:42.413Z,12.80
2018-10-01T10:37:10.215Z,12.80
2018-10-01T10:39:38.070Z,12.70
2018-10-01T10:42:05.856Z,12.60
2018-10-01T10:44:33.689Z,12.60
2018-10-01T10:47:01.401Z,12.60
2018-10-01T10:49:29.181Z,12.50
2018-10-01T10:51:56.992Z,12.50
2018-10-01T10:54:24.761Z,12.50
2018-10-01T10:56:52.564Z,12.70
2018-10-01T10:59:20.366Z,12.70
2018-10-01T11:01:48.200Z,12.60
2018-10-01T11:04:16.013Z,12.80
2018-10-01T11:06:43.913Z,13.00
2018-10-01T11:09:11.879Z,13.00
2018-10-01T11:11:39.671Z,12.90
2018-10-01T11:14:07.888Z,13.00
2018-10-01T11:16:35.673Z,12.90
2018-10-01T11:19:03.564Z,12.80
2018-10-01T11:21:31.296Z,12.60
2018-10-01T11:23:59.032Z,12.60
2018-10-01T11:26:26.812Z,12.50
2018-10-01T11:28:54.637Z,12.50
2018-10-01T11:31:22.490Z,12.30
2018-10-01T11:33:50.242Z,12.30
2018-10-01T11:36:18.050Z,12.20
2018-10-01T11:38:45.878Z,12.20
2018-10-01T11:41:13.725Z,12.30
2018-10-01T11:43:41.531Z,12.50
2018-10-01T11:46:09.336Z,12.50
2018-10-01T11:48:37.086Z,12.30
2018-10-01T11:51:04.904Z,12.20
2018-10-01T11:53:32.676Z,12.20
2018-10-01T11:56:00.562Z,12.20
2018-10-01T11:58:28.357Z,12.20
2018-10-01T12:00:56.146Z,12.40
2018-10-01T12:03:23.972Z,12.30
2018-10-01T12:05:51.788Z,12.30
2018-10-01T12:08:19.560Z,12.20
2018-10-01T12:10:47.425Z,12.10
2018-10-01T12:13:15.277Z,12.10
2018-10-01T12:15:43.204Z,12.00
2018-10-01T12:18:11.673Z,11.90
2018-10-01T12:20:39.446Z,12.00
2018-10-01T12:23:08.038Z,11.90
2018-10-01T12:25:35.896Z,11.80
2018-10-01T12:28:03.789Z,11.80
2018-10-01T12:30:31.569Z,11.80
2018-10-01T12:32:59.337Z,11.80
2018-10-01T12:35:27.153Z,11.80
2018-10-01T12:37:55.077Z,11.80
2018-10-01T12:40:22.869Z,11.70
2018-10-01T12:42:50.721Z,11.70
2018-10-01T12:45:18.463Z,11.60
2018-10-01T12:47:46.272Z,11.40
2018-10-01T12:50:14.138Z,11.20
2018-10-01T12:52:41.996Z,11.00
2018-10-01T12:55:09.784Z,10.80
2018-10-01T12:57:37.612Z,10.50
2018-10-01T13:00:05.401Z,10.40
2018-10-01T13:02:33.145Z,10.30
2018-10-01T13:05:01.010Z,10.10
2018-10-01T13:07:28.822Z,10.20
2018-10-01T13:09:56.598Z,10.10
2018-10-01T13:12:24.437Z,10.00
2018-10-01T13:14:52.201Z,9.90
2018-10-01T13:17:19.968Z,10.00
2018-10-01T13:19:47.762Z,9.90
2018-10-01T13:22:15.540Z,9.90
2018-10-01T13:24:43.465Z,9.90
2018-10-01T13:27:11.276Z,9.90
2018-10-01T13:29:39.072Z,9.90
2018-10-01T13:32:07.110Z,10.00
2018-10-01T13:34:34.886Z,10.10
2018-10-01T13:37:03.008Z,10.30
2018-10-01T13:39:30.799Z,10.50
2018-10-01T13:41:58.608Z,10.60
2018-10-01T13:44:26.414Z,10.40
2018-10-01T13:46:54.196Z,10.40
2018-10-01T13:49:22.028Z,10.30
2018-10-01T13:51:49.820Z,10.40
2018-10-01T13:54:17.668Z,10.40
2018-10-01T13:56:45.508Z,10.70
2018-10-01T13:59:13.381Z,10.70
2018-10-01T14:01:41.202Z,10.80
2018-10-01T14:04:08.986Z,10.70
2018-10-01T14:06:36.814Z,10.70
2018-10-01T14:09:06.690Z,10.60
2018-10-01T14:11:34.484Z,10.50
2018-10-01T14:14:02.322Z,10.30
2018-10-01T14:16:30.110Z,10.20
2018-10-01T14:18:57.959Z,10.10
2018-10-01T14:21:25.799Z,10.00
2018-10-01T14:23:53.645Z,10.10
2018-10-01T14:26:21.614Z,10.00
2018-10-01T14:28:49.389Z,10.00
2018-10-01T14:31:17.193Z,10.00
2018-10-01T14:33:44.969Z,10.00
2018-10-01T14:36:12.855Z,10.00
2018-10-01T14:38:40.613Z,10.00
2018-10-01T14:41:08.401Z,10.00
2018-10-01T14:43:36.209Z,10.10
2018-10-01T14:46:04.107Z,10.20
2018-10-01T14:48:31.892Z,10.10
2018-10-01T14:50:59.739Z,10.10
2018-10-01T14:53:27.529Z,10.10
2018-10-01T14:55:55.338Z,10.30
2018-10-01T14:58:23.199Z,10.40
2018-10-01T15:00:51.014Z,10.50
2018-10-01T15:03:19.094Z,10.40
2018-10-01T15:05:46.875Z,10.30
2018-10-01T15:08:14.853Z,10.20
2018-10-01T15:10:42.794Z,10.00
2018-10-01T15:13:10.590Z,10.00
2018-10-01T15:15:38.394Z,9.90
2018-10-01T15:18:06.304Z,9.80
2018-10-01T15:20:34.041Z,9.80
2018-10-01T15:23:01.857Z,9.70
2018-10-01T15:25:29.630Z,9.70
2018-10-01T15:27:57.439Z,9.80
2018-10-01T15:30:25.256Z,9.90
2018-10-01T15:32:53.052Z,9.80
2018-10-01T15:35:20.858Z,9.80
2018-10-01T15:37:48.624Z,9.80
2018-10-01T15:40:16.464Z,9.60
2018-10-01T15:42:44.350Z,10.10
2018-10-01T15:45:12.157Z,10.00
2018-10-01T15:47:39.960Z,10.20
2018-10-01T15:50:07.825Z,10.20
2018-10-01T15:52:36.601Z,10.30
2018-10-01T15:55:04.561Z,10.40
2018-10-01T15:57:32.368Z,10.30
2018-10-01T16:00:00.233Z,10.20
2018-10-01T16:02:28.099Z,10.40
2018-10-01T16:04:55.912Z,10.40
2018-10-01T16:07:23.695Z,10.30
2018-10-01T16:09:51.476Z,10.50
2018-10-01T16:12:19.245Z,10.40
2018-10-01T16:14:47.137Z,10.30
2018-10-01T16:17:15.194Z,10.30
2018-10-01T16:19:43.115Z,10.20
2018-10-01T16:22:10.953Z,10.40
2018-10-01T16:24:38.721Z,10.40
2018-10-01T16:27:06.547Z,10.40
2018-10-01T16:29:34.348Z,10.30
2018-10-01T16:32:02.176Z,10.20
2018-10-01T16:34:29.994Z,10.10
2018-10-01T16:36:57.817Z,10.10
2018-10-01T16:39:25.641Z,10.10
2018-10-01T16:41:53.459Z,10.20
2018-10-01T16:44:21.297Z,10.30
2018-10-01T16:46:49.125Z,10.40
2018-10-01T16:49:17.008Z,10.50
2018-10-01T16:51:44.893Z,10.50
2018-10-01T16:54:12.840Z,10.50
2018-10-01T16:56:40.604Z,10.50
2018-10-01T16:59:08.369Z,10.60
2018-10-01T17:01:37.333Z,10.40
2018-10-01T17:04:05.145Z,10.30
2018-10-01T17:06:33.373Z,10.30
2018-10-01T17:09:01.706Z,10.20
2018-10-01T17:11:29.549Z,10.20
2018-10-01T17:13:57.486Z,10.10
2018-10-01T17:16:25.285Z,9.90
2018-10-01T17:18:53.065Z,9.80
2018-10-01T17:21:20.874Z,9.90
2018-10-01T17:23:48.740Z,9.80
2018-10-01T17:26:16.603Z,10.10
2018-10-01T17:28:44.686Z,10.10
2018-10-01T17:31:12.951Z,10.00
2018-10-01T17:33:40.825Z,9.90
2018-10-01T17:36:08.686Z,9.80
2018-10-01T17:38:37.444Z,10.00
2018-10-01T17:41:05.533Z,10.20
2018-10-01T17:43:33.393Z,10.20
2018-10-01T17:46:01.297Z,10.20
2018-10-01T17:48:29.177Z,10.30
2018-10-01T17:50:57.261Z,10.20
2018-10-01T17:53:25.042Z,10.10
2018-10-01T17:55:52.881Z,10.00
2018-10-01T17:58:20.727Z,9.90
2018-10-01T18:00:48.642Z,9.80
2018-10-01T18:03:16.604Z,9.70
2018-10-01T18:05:44.676Z,9.90
2018-10-01T18:08:12.752Z,9.80
2018-10-01T18:10:40.628Z,10.00
2018-10-01T18:13:08.397Z,9.90
2018-10-01T18:15:36.229Z,9.90
2018-10-01T18:18:04.095Z,9.90
2018-10-01T18:20:31.858Z,10.10
2018-10-01T18:22:59.674Z,10.00
2018-10-01T18:25:27.436Z,10.00
2018-10-01T18:27:55.269Z,9.90
2018-10-01T18:30:23.194Z,9.80
2018-10-01T18:32:50.977Z,9.70
2018-10-01T18:35:19.714Z,9.70
2018-10-01T18:37:47.577Z,9.70
2018-10-01T18:40:15.481Z,9.60
2018-10-01T18:42:43.605Z,9.70
2018-10-01T18:45:11.533Z,9.80
2018-10-01T18:47:39.405Z,9.70
2018-10-01T18:50:07.490Z,9.70
2018-10-01T18:52:35.405Z,9.70
2018-10-01T18:55:03.270Z,9.60
2018-10-01T18:57:31.112Z,9.60
2018-10-01T18:59:59.018Z,9.70
2018-10-01T19:02:26.873Z,9.90
2018-10-01T19:04:54.659Z,10.10
2018-10-01T19:07:22.473Z,10.30
2018-10-01T19:09:50.317Z,10.30
2018-10-01T19:12:18.269Z,10.20
2018-10-01T19:14:46.140Z,9.80
2018-10-01T19:17:13.993Z,9.80
2018-10-01T19:19:41.789Z,9.60
2018-10-01T19:22:09.583Z,9.50
2018-10-01T19:24:37.396Z,9.40
2018-10-01T19:27:05.278Z,9.40
2018-10-01T19:29:33.010Z,9.40
2018-10-01T19:32:00.813Z,9.80
2018-10-01T19:34:28.665Z,9.80
2018-10-01T19:36:56.453Z,9.70
2018-10-01T19:39:24.400Z,9.80
2018-10-01T19:41:52.157Z,9.90
2018-10-01T19:44:19.930Z,9.90
2018-10-01T19:46:47.942Z,9.70
2018-10-01T19:49:15.925Z,9.60
2018-10-01T19:51:43.841Z,9.60
2018-10-01T19:54:11.637Z,9.50
2018-10-01T19:56:39.454Z,9.50
2018-10-01T19:59:07.319Z,9.50
2018-10-01T20:01:35.118Z,9.40
2018-10-01T20:04:02.985Z,9.30
2018-10-01T20:06:30.841Z,9.40
2018-10-01T20:08:58.779Z,9.40
2018-10-01T20:11:26.586Z,9.40
2018-10-01T20:13:54.341Z,9.40
2018-10-01T20:16:22.125Z,9.50
2018-10-01T20:18:49.926Z,9.40
2018-10-01T20:21:17.844Z,9.40
2018-10-01T20:23:45.892Z,9.50
2018-10-01T20:26:13.800Z,9.60
2018-10-01T20:28:41.871Z,9.50
2018-10-01T20:31:09.401Z,9.60
2018-10-01T20:33:37.182Z,9.80
2018-10-01T20:36:05.173Z,9.80
2018-10-01T20:38:32.969Z,9.80
2018-10-01T20:41:01.008Z,9.70
2018-10-01T20:43:28.765Z,9.60
2018-10-01T20:45:56.613Z,9.70
2018-10-01T20:48:24.444Z,9.70
2018-10-01T20:50:52.549Z,9.70
2018-10-01T20:53:20.466Z,9.60
2018-10-01T20:55:48.326Z,9.60
2018-10-01T20:58:16.449Z,9.50
2018-10-01T21:00:44.472Z,9.50
2018-10-01T21:03:12.351Z,9.70
2018-10-01T21:05:40.137Z,9.90
2018-10-01T21:08:07.933Z,10.00
2018-10-01T21:10:35.773Z,9.90
2018-10-01T21:13:03.642Z,9.80
2018-10-01T21:15:31.602Z,9.60
2018-10-01T21:17:59.390Z,9.50
2018-10-01T21:20:27.330Z,9.50
2018-10-01T21:22:55.386Z,9.60
2018-10-01T21:25:23.185Z,9.90
2018-10-01T21:27:51.062Z,9.90
2018-10-01T21:30:19.044Z,9.70
2018-10-01T21:32:47.129Z,9.60
2018-10-01T21:35:16.257Z,9.50
2018-10-01T21:37:44.247Z,9.50
2018-10-01T21:40:13.921Z,9.50
2018-10-01T21:42:41.959Z,9.40
2018-10-01T21:45:10.981Z,9.40
2018-10-01T21:47:38.780Z,9.40
2018-10-01T21:50:06.786Z,9.30
2018-10-01T21:52:34.567Z,9.20
2018-10-01T21:55:03.794Z,9.20
2018-10-01T21:57:31.833Z,9.20
2018-10-01T21:59:59.875Z,9.30
2018-10-01T22:02:27.652Z,9.20
2018-10-01T22:04:55.481Z,9.30
2018-10-01T22:07:24.633Z,9.40
2018-10-01T22:09:52.444Z,9.40
2018-10-01T22:12:20.306Z,9.20
2018-10-01T22:14:48.165Z,9.20
2018-10-01T22:17:16.147Z,9.20
2018-10-01T22:19:43.990Z,9.30
2018-10-01T22:22:11.773Z,9.30
2018-10-01T22:24:39.660Z,9.30
2018-10-01T22:27:07.514Z,9.40
2018-10-01T22:29:35.357Z,9.40
2018-10-01T22:32:03.169Z,9.40
2018-10-01T22:34:30.973Z,9.50
2018-10-01T22:36:58.816Z,9.60
2018-10-01T22:39:26.655Z,9.80
2018-10-01T22:41:54.572Z,9.70
2018-10-01T22:44:22.400Z,9.90
2018-10-01T22:46:50.481Z,9.80
2018-10-01T22:49:18.268Z,9.90
2018-10-01T22:51:46.345Z,9.90
2018-10-01T22:54:14.241Z,9.80
2018-10-01T22:56:42.077Z,9.60
2018-10-01T22:59:09.862Z,9.60
2018-10-01T23:01:37.714Z,9.40
2018-10-01T23:04:05.522Z,9.20
2018-10-01T23:06:33.349Z,9.20
2018-10-01T23:09:01.236Z,9.20
2018-10-01T23:11:29.052Z,9.20
2018-10-01T23:13:56.913Z,9.10
2018-10-01T23:16:24.725Z,9.10
2018-10-01T23:18:52.517Z,9.10
2018-10-01T23:21:20.368Z,9.10
2018-10-01T23:23:48.235Z,9.20
2018-10-01T23:26:16.252Z,9.40
2018-10-01T23:28:44.029Z,9.40
2018-10-01T23:31:11.821Z,9.60
2018-10-01T23:33:40.152Z,9.60
2018-10-01T23:36:07.948Z,9.60
2018-10-01T23:38:35.819Z,9.50
2018-10-01T23:41:03.551Z,9.40
2018-10-01T23:43:31.309Z,9.40
2018-10-01T23:45:59.088Z,9.40
2018-10-01T23:48:26.869Z,9.40
2018-10-01T23:50:54.669Z,9.40
2018-10-01T23:53:22.451Z,9.40
2018-10-01T23:55:50.356Z,9.30
2018-10-01T23:58:18.200Z,9.40
